AirNav   Air Wisconsin Up To $57,000 Bonus
 
 1077 users online  

32MD Roseland Airport
Sudlersville, Maryland, USA

GOING TO SUDLERSVILLE?


FAA INFORMATION EFFECTIVE 16 JUNE 2022

Location

FAA Identifier: 32MD
Lat/Long: 39-11-22.0000N 075-52-36.6000W
39-11.366667N 075-52.610000W
39.1894444,-75.8768333
(estimated)
Elevation: 70 ft. / 21 m (estimated)
From city: 1 mile W of SUDLERSVILLE, MD
Time zone: UTC -4 (UTC -5 during Standard Time)
Zip code: 21668

Airport Operations

Airport use: Private use. Permission required prior to landing
Activation date: 04/2006
Control tower: no
ARTCC: WASHINGTON CENTER
FSS: LEESBURG FLIGHT SERVICE STATION
Attendance: UNATNDD
Wind indicator: yes
Segmented circle: no

Airport Communications

WX AWOS-3 at 33N (13 nm E): 120.125 (302-735-9754)

Airport Services

Runway Information

Runway 13/31

Dimensions: 3000 x 100 ft. / 914 x 30 m
Surface: turf
RUNWAY 13  RUNWAY 31
Traffic pattern: leftleft

Airport Ownership and Management from official FAA records

Ownership: Privately-owned
Owner: PAUL E SCHLOSSER
140 ROSEBUD LANE
SUDLERSVILLE, MD 21668
Phone 410-755-6500
Manager: PAUL A. SCHLOSSER
140 ROSEBUD LAND
SUDLERSVILLE, MD 21668
Phone 410-708-0601

Airport Operational Statistics

Aircraft based on the field: 4
Single engine airplanes: 3
Multi engine airplanes: 1
    

Additional Remarks

FOR CD CTC POTOMAC APCH AT 866-429-5882.
OWNER DESIRES ARPT BE CHARTED.

Instrument Procedures

There are no published instrument procedures at 32MD.

Some nearby airports with instrument procedures:

33N - Delaware Airpark (13 nm E)
KRJD - Gooden Airpark (13 nm S)
KDOV - Dover Air Force Base (19 nm E)
KEVY - Summit Airport (21 nm N)
KAPG - Phillips Army Airfield (21 nm NW)
 
Loc | Ops | Rwys | IFR | FBO | Links
Com | Nav | Svcs | Stats | Notes
Area around 32MD (Roseland Airport)
 
Road maps at: MapQuest Bing Google
 
Aerial photo
No photo
 
Sectional chart

 
Airport distance calculator
Flying to Roseland Airport? Find the distance to fly.

From to 32MD

Sunrise and sunset
Times for 02-Jul-2022
 Local
(UTC-4)
 Zulu
(UTC)
Morning civil twilight05:1009:10
Sunrise05:4209:42
Sunset20:3300:33
Evening civil twilight21:0501:05

Current date and time
Zulu (UTC)  02-Jul-2022 15:20:26
Local (UTC-4)  02-Jul-2022 11:20:26
 
METAR
K33N 
13nm E 
021455Z AUTO 23009KT 10SM CLR 29/22 A2996 RMK A01
KAPG 
19nm NW 
011858Z 19011KT 9SM BKN040 BKN120 30/23 A2996 RMK AO2A LAST SLP148 T03010226 $
KDOV 
20nm E 
021456Z AUTO 20011KT 10SM FEW210 30/21 A2994 RMK AO2 SLP142 T02980209 55004
KESN 
25nm S 
021445Z 22009KT 10SM SCT020 29/27 A3001
TAF
KDOV 
20nm E 
020800Z 0208/0314 21012G18KT 9999 OVC130 QNH2993INS BECMG 0211/0212 22012G20KT 9999 SCT060 BKN100 QNH2995INS TEMPO 0212/0216 8000 -SHRA BECMG 0215/0216 21012KT 9999 SCT030 BKN050 BKN100 QNH2992INS BECMG 0221/0222 22009KT 8000 -SHRA BKN030 BKN050 QNH2991INS BECMG 0223/0224 22009KT 3200 -TSRA OVC040CB QNH2992INS BECMG 0305/0306 25009KT 9999 NSW BKN010 OVC030 QNH2995INS BECMG 0309/0310 02006KT 8000 -SHRA BKN010 OVC030 QNH3000INS TX32/0220Z TN24/0210Z
NOTAMs
Click for the latest NOTAMs
NOTAMs are issued by the DoD/FAA and will open in a separate window not controlled by AirNav.

 

 
 

Would you like to see your business listed on this page?

 If your business provides an interesting product or service to pilots, flight crews, aircraft, or users of the Roseland Airport, you should consider listing it here.  To start the listing process, click on the button below
 
Add a business
 

Other Pages about Roseland Airport

Update a link
 
Copyright © AirNav, LLC. All rights reserved. Privacy Policy  Contact